createdAt,value
2023-01-11T00:01:16.297Z,-13.99
2023-01-11T00:03:43.350Z,-13.92
2023-01-11T00:06:11.361Z,-13.91
2023-01-11T00:08:38.464Z,-13.89
2023-01-11T00:11:13.227Z,-13.91
2023-01-11T00:13:40.410Z,-13.91
2023-01-11T00:16:08.584Z,-13.92
2023-01-11T00:18:36.299Z,-13.89
2023-01-11T00:21:07.273Z,-13.93
2023-01-11T00:23:35.979Z,-13.92
2023-01-11T00:26:08.629Z,-13.93
2023-01-11T00:28:36.208Z,-13.90
2023-01-11T00:31:03.650Z,-13.94
2023-01-11T00:33:31.371Z,-13.97
2023-01-11T00:35:58.405Z,-13.95
2023-01-11T00:38:44.047Z,-13.97
2023-01-11T00:41:30.751Z,-13.97
2023-01-11T00:44:16.483Z,-13.91
2023-01-11T00:47:02.309Z,-13.86
2023-01-11T00:49:29.648Z,-13.85
2023-01-11T00:51:56.796Z,-13.86
2023-01-11T00:54:23.869Z,-13.87
2023-01-11T00:56:50.860Z,-13.86
2023-01-11T00:59:17.929Z,-13.86
2023-01-11T01:01:45.077Z,-13.83
2023-01-11T01:04:12.158Z,-13.85
2023-01-11T01:06:39.363Z,-13.79
2023-01-11T01:09:06.517Z,-13.77
2023-01-11T01:11:33.787Z,-13.75
2023-01-11T01:14:19.423Z,-13.80
2023-01-11T01:16:47.895Z,-13.76
2023-01-11T01:19:14.830Z,-13.78
2023-01-11T01:21:41.926Z,-13.77
2023-01-11T01:24:09.106Z,-13.81
2023-01-11T01:26:36.160Z,-13.79
2023-01-11T01:29:07.979Z,-13.79
2023-01-11T01:31:35.228Z,-13.81
2023-01-11T01:34:02.291Z,-13.81
2023-01-11T01:36:29.227Z,-13.81
2023-01-11T01:38:56.305Z,-13.84
2023-01-11T01:41:23.241Z,-13.86
2023-01-11T01:44:01.505Z,-13.82
2023-01-11T01:46:33.563Z,-13.84
2023-01-11T01:49:04.813Z,-13.81
2023-01-11T01:51:41.580Z,-13.83
2023-01-11T01:54:17.784Z,-13.84
2023-01-11T01:56:52.091Z,-13.82
2023-01-11T01:59:20.642Z,-13.83
2023-01-11T02:01:48.394Z,-13.81
2023-01-11T02:04:28.485Z,-13.79
2023-01-11T02:07:04.700Z,-13.81
2023-01-11T02:09:50.770Z,-13.86
2023-01-11T02:12:18.555Z,-13.80
2023-01-11T02:14:47.374Z,-13.81
2023-01-11T02:17:15.029Z,-13.84
2023-01-11T02:20:02.484Z,-13.81
2023-01-11T02:22:36.454Z,-13.82
2023-01-11T02:25:28.406Z,-13.86
2023-01-11T02:27:55.444Z,-13.85
2023-01-11T02:30:22.334Z,-13.84
2023-01-11T02:33:04.016Z,-13.89
2023-01-11T02:35:49.208Z,-13.85
2023-01-11T02:38:22.214Z,-13.85
2023-01-11T02:40:52.163Z,-13.86
2023-01-11T02:44:03.300Z,-13.87
2023-01-11T02:46:55.430Z,-13.82
2023-01-11T02:49:44.849Z,-13.84
2023-01-11T02:52:14.386Z,-13.85
2023-01-11T02:54:45.847Z,-13.88
2023-01-11T02:57:14.113Z,-13.85
2023-01-11T02:59:42.104Z,-13.89
2023-01-11T03:02:10.083Z,-13.86
2023-01-11T03:04:37.894Z,-13.85
2023-01-11T03:07:35.432Z,-13.82
2023-01-11T03:10:33.680Z,-13.82
2023-01-11T03:13:37.823Z,-13.81
2023-01-11T03:16:35.512Z,-13.80
2023-01-11T03:19:36.600Z,-13.80
2023-01-11T03:22:10.391Z,-13.83
2023-01-11T03:24:58.449Z,-13.78
2023-01-11T03:27:42.822Z,-13.80
2023-01-11T03:30:27.531Z,-13.82
2023-01-11T03:33:04.944Z,-13.84
2023-01-11T03:35:38.599Z,-13.83
2023-01-11T03:38:31.896Z,-13.83
2023-01-11T03:41:05.626Z,-13.84
2023-01-11T03:43:35.772Z,-13.85
2023-01-11T03:46:24.672Z,-13.86
2023-01-11T03:49:13.326Z,-13.90
2023-01-11T03:51:45.324Z,-13.88
2023-01-11T03:54:16.139Z,-13.93
2023-01-11T03:56:53.999Z,-13.91
2023-01-11T03:59:21.099Z,-13.93
2023-01-11T04:01:48.174Z,-13.91
2023-01-11T04:04:15.437Z,-13.90
2023-01-11T04:06:43.047Z,-13.92
2023-01-11T04:09:10.064Z,-13.88
2023-01-11T04:11:37.262Z,-13.85
2023-01-11T04:14:04.310Z,-13.90
2023-01-11T04:16:31.400Z,-13.93
2023-01-11T04:18:58.462Z,-13.92
2023-01-11T04:21:25.633Z,-13.89
2023-01-11T04:23:52.810Z,-13.93
2023-01-11T04:26:19.843Z,-13.90
2023-01-11T04:28:46.832Z,-13.90
2023-01-11T04:31:13.874Z,-13.92
2023-01-11T04:33:41.086Z,-13.95
2023-01-11T04:36:10.154Z,-13.95
2023-01-11T04:38:37.628Z,-13.98
2023-01-11T04:41:24.971Z,-13.98
2023-01-11T04:43:57.303Z,-14.01
2023-01-11T04:46:24.933Z,-14.02
2023-01-11T04:48:53.308Z,-14.01
2023-01-11T04:51:20.378Z,-14.02
2023-01-11T04:53:49.253Z,-14.02
2023-01-11T04:56:17.119Z,-14.03
2023-01-11T04:58:44.515Z,-14.05
2023-01-11T05:01:13.004Z,-14.09
2023-01-11T05:03:42.848Z,-14.13
2023-01-11T05:06:10.087Z,-14.17
2023-01-11T05:08:37.150Z,-14.15
2023-01-11T05:11:09.841Z,-14.16
2023-01-11T05:13:42.929Z,-14.15
2023-01-11T05:16:21.808Z,-14.14
2023-01-11T05:18:51.151Z,-14.16
2023-01-11T05:21:20.600Z,-14.16
2023-01-11T05:24:15.877Z,-14.15
2023-01-11T05:26:43.448Z,-14.12
2023-01-11T05:29:16.621Z,-14.12
2023-01-11T05:31:43.880Z,-14.12
2023-01-11T05:34:13.245Z,-14.11
2023-01-11T05:36:41.036Z,-14.12
2023-01-11T05:39:07.998Z,-14.15
2023-01-11T05:41:36.048Z,-14.14
2023-01-11T05:44:22.188Z,-14.09
2023-01-11T05:46:49.291Z,-14.07
2023-01-11T05:49:17.031Z,-14.01
2023-01-11T05:51:44.392Z,-13.98
2023-01-11T05:54:13.611Z,-13.90
2023-01-11T05:56:42.618Z,-13.90
2023-01-11T05:59:09.950Z,-13.83
2023-01-11T06:01:38.359Z,-13.78
2023-01-11T06:04:05.448Z,-13.76
2023-01-11T06:06:38.386Z,-13.69
2023-01-11T06:09:07.787Z,-13.64
2023-01-11T06:11:35.636Z,-13.65
2023-01-11T06:14:08.102Z,-13.69
2023-01-11T06:16:35.069Z,-13.71
2023-01-11T06:19:02.262Z,-13.64
2023-01-11T06:21:29.219Z,-13.63
2023-01-11T06:23:56.292Z,-13.57
2023-01-11T06:26:23.657Z,-13.48
2023-01-11T06:28:51.579Z,-13.49
2023-01-11T06:31:19.674Z,-13.44
2023-01-11T06:33:47.496Z,-13.41
2023-01-11T06:36:16.354Z,-13.37
2023-01-11T06:38:46.876Z,-13.30
2023-01-11T06:41:14.141Z,-13.24
2023-01-11T06:43:42.475Z,-13.21
2023-01-11T06:46:17.080Z,-13.08
2023-01-11T06:48:45.052Z,-13.06
2023-01-11T06:51:12.853Z,-13.07
2023-01-11T06:53:41.106Z,-13.17
2023-01-11T06:56:09.881Z,-13.06
2023-01-11T06:58:37.960Z,-13.04
2023-01-11T07:01:05.279Z,-13.00
2023-01-11T07:03:32.711Z,-12.99
2023-01-11T07:05:59.923Z,-12.91
2023-01-11T07:08:29.258Z,-12.85
2023-01-11T07:10:56.543Z,-12.80
2023-01-11T07:13:23.792Z,-12.79
2023-01-11T07:15:54.104Z,-12.77
2023-01-11T07:18:22.385Z,-12.73
2023-01-11T07:20:51.264Z,-12.70
2023-01-11T07:23:20.348Z,-12.63
2023-01-11T07:25:50.020Z,-12.69
2023-01-11T07:28:17.550Z,-12.55
2023-01-11T07:30:57.312Z,-12.56
2023-01-11T07:33:51.174Z,-12.53
2023-01-11T07:36:18.218Z,-12.53
2023-01-11T07:38:47.336Z,-12.54
2023-01-11T07:41:33.083Z,-12.50
2023-01-11T07:44:00.131Z,-12.46
2023-01-11T07:46:27.146Z,-12.42
2023-01-11T07:48:55.555Z,-12.44
2023-01-11T07:51:24.398Z,-12.46
2023-01-11T07:53:51.861Z,-12.50
2023-01-11T07:56:24.742Z,-12.48
2023-01-11T07:58:51.778Z,-12.51
2023-01-11T08:01:18.874Z,-12.50
2023-01-11T08:03:46.066Z,-12.46
2023-01-11T08:06:14.872Z,-12.43
2023-01-11T08:08:42.705Z,-12.38
2023-01-11T08:11:28.995Z,-12.32
2023-01-11T08:14:14.754Z,-12.30
2023-01-11T08:16:41.966Z,-12.31
2023-01-11T08:19:09.103Z,-12.28
2023-01-11T08:21:36.403Z,-12.24
2023-01-11T08:24:08.617Z,-12.24
2023-01-11T08:26:35.709Z,-12.20
2023-01-11T08:29:02.829Z,-12.18
2023-01-11T08:31:30.391Z,-12.13
2023-01-11T08:33:59.275Z,-12.11
2023-01-11T08:36:27.636Z,-12.09
2023-01-11T08:38:55.999Z,-12.07
2023-01-11T08:41:24.941Z,-12.04
2023-01-11T08:43:52.365Z,-12.02
2023-01-11T08:46:20.038Z,-12.00
2023-01-11T08:48:47.155Z,-11.89
2023-01-11T08:51:14.803Z,-11.86
2023-01-11T08:53:42.309Z,-11.85
2023-01-11T08:56:09.491Z,-11.70
2023-01-11T08:58:36.630Z,-11.61
2023-01-11T09:01:08.207Z,-11.63
2023-01-11T09:03:36.028Z,-11.55
2023-01-11T09:06:03.272Z,-11.50
2023-01-11T09:08:35.351Z,-11.49
2023-01-11T09:11:02.415Z,-11.46
2023-01-11T09:13:29.382Z,-11.47
2023-01-11T09:15:59.587Z,-11.58
2023-01-11T09:18:27.329Z,-11.61
2023-01-11T09:20:54.941Z,-11.57
2023-01-11T09:23:24.373Z,-11.58
2023-01-11T09:25:51.440Z,-11.62
2023-01-11T09:28:18.495Z,-11.62
2023-01-11T09:30:47.451Z,-11.71
2023-01-11T09:33:14.482Z,-11.76
2023-01-11T09:35:42.931Z,-11.66
2023-01-11T09:38:09.986Z,-11.61
2023-01-11T09:40:46.239Z,-11.60
2023-01-11T09:43:15.209Z,-11.60
2023-01-11T09:45:46.985Z,-11.52
2023-01-11T09:48:24.133Z,-11.43
2023-01-11T09:50:54.090Z,-11.50
2023-01-11T09:53:47.747Z,-11.52
2023-01-11T09:56:17.036Z,-11.70
2023-01-11T09:59:26.240Z,-11.66
2023-01-11T10:02:05.674Z,-11.48
2023-01-11T10:04:42.083Z,-11.46
2023-01-11T10:07:33.839Z,-11.38
2023-01-11T10:18:40.603Z,-11.36
2023-01-11T10:20:16.301Z,-11.26
2023-01-11T10:23:03.241Z,-11.36
2023-01-11T10:25:55.026Z,-11.22
2023-01-11T10:28:33.375Z,-11.22
2023-01-11T10:31:01.020Z,-11.17
2023-01-11T10:34:08.013Z,-11.08
2023-01-11T10:36:53.962Z,-11.06
2023-01-11T10:39:50.904Z,-11.23
2023-01-11T10:42:31.349Z,-11.16
2023-01-11T10:45:04.803Z,-11.28
2023-01-11T10:47:39.320Z,-11.29
2023-01-11T10:50:18.474Z,-11.31
2023-01-11T10:53:02.835Z,-11.40
2023-01-11T10:55:43.881Z,-11.35
2023-01-11T10:58:30.666Z,-11.28
2023-01-11T11:01:38.584Z,-11.24
2023-01-11T11:04:23.933Z,-11.24
2023-01-11T11:06:54.734Z,-11.22
2023-01-11T11:09:36.037Z,-11.32
2023-01-11T11:12:40.788Z,-11.22
2023-01-11T11:15:30.087Z,-11.26
2023-01-11T11:18:01.157Z,-11.25
2023-01-11T11:20:33.271Z,-11.20
2023-01-11T11:23:00.962Z,-11.21
2023-01-11T11:25:37.495Z,-11.19
2023-01-11T11:28:07.465Z,-11.19
2023-01-11T11:30:42.709Z,-11.22
2023-01-11T11:33:37.574Z,-11.28
2023-01-11T11:36:12.476Z,-11.23
2023-01-11T11:38:41.844Z,-11.26
2023-01-11T11:41:11.496Z,-11.27
2023-01-11T11:43:43.256Z,-11.27
2023-01-11T11:46:20.387Z,-11.25
2023-01-11T11:49:09.583Z,-11.21
2023-01-11T11:51:36.710Z,-11.30
2023-01-11T11:54:04.012Z,-11.17
2023-01-11T11:56:33.825Z,-11.27
2023-01-11T11:59:10.174Z,-11.36
2023-01-11T12:01:46.915Z,-11.26
2023-01-11T12:04:19.688Z,-11.35
2023-01-11T12:07:04.061Z,-11.21
2023-01-11T12:09:33.298Z,-11.28
2023-01-11T12:12:02.161Z,-11.30
2023-01-11T12:14:32.025Z,-11.24
2023-01-11T12:17:01.944Z,-11.40
2023-01-11T12:19:29.321Z,-11.29
2023-01-11T12:22:12.530Z,-11.28
2023-01-11T12:24:39.856Z,-11.27
2023-01-11T12:27:13.069Z,-11.31
2023-01-11T12:30:10.348Z,-11.35
2023-01-11T12:33:00.615Z,-11.40
2023-01-11T12:35:49.971Z,-11.37
2023-01-11T12:38:44.877Z,-11.33
2023-01-11T12:41:50.294Z,-11.32
2023-01-11T12:44:38.945Z,-11.31
2023-01-11T12:47:38.453Z,-11.35
2023-01-11T12:50:15.308Z,-11.39
2023-01-11T12:52:49.140Z,-11.38
2023-01-11T12:55:44.423Z,-11.39
2023-01-11T12:58:25.653Z,-11.44
2023-01-11T13:01:26.521Z,-11.46
2023-01-11T13:03:59.523Z,-11.47
2023-01-11T13:06:35.009Z,-11.48
2023-01-11T13:09:20.401Z,-11.54
2023-01-11T13:12:25.854Z,-11.53
2023-01-11T13:15:06.116Z,-11.52
2023-01-11T13:17:47.628Z,-11.49
2023-01-11T13:20:58.739Z,-11.44
2023-01-11T13:23:46.080Z,-11.39
2023-01-11T13:26:22.802Z,-11.36
2023-01-11T13:29:15.157Z,-11.30
2023-01-11T13:31:44.744Z,-11.31
2023-01-11T13:34:17.686Z,-11.41
2023-01-11T13:37:06.536Z,-11.41
2023-01-11T13:39:44.866Z,-11.31
2023-01-11T13:42:39.063Z,-11.30
2023-01-11T13:45:22.981Z,-11.27
2023-01-11T13:47:54.890Z,-11.29
2023-01-11T13:50:52.207Z,-11.25
2023-01-11T13:53:35.090Z,-11.28
2023-01-11T13:56:13.152Z,-11.27
2023-01-11T13:58:53.976Z,-11.21
2023-01-11T14:01:38.725Z,-11.32
2023-01-11T14:04:16.283Z,-11.22
2023-01-11T14:07:02.875Z,-11.25
2023-01-11T14:09:57.834Z,-11.24
2023-01-11T14:13:10.745Z,-11.24
2023-01-11T14:15:54.083Z,-11.20
2023-01-11T14:18:53.663Z,-11.20
2023-01-11T14:21:42.215Z,-11.22
2023-01-11T14:24:10.871Z,-11.23
2023-01-11T14:26:53.177Z,-11.28
2023-01-11T14:29:38.830Z,-11.28
2023-01-11T14:32:47.402Z,-11.29
2023-01-11T14:35:24.442Z,-11.30
2023-01-11T14:38:01.800Z,-11.28
2023-01-11T14:40:37.677Z,-11.32
2023-01-11T14:43:26.558Z,-11.35
2023-01-11T14:46:00.314Z,-11.43
2023-01-11T14:48:44.832Z,-11.45
2023-01-11T14:51:22.154Z,-11.44
2023-01-11T14:53:56.410Z,-11.56
2023-01-11T14:56:49.157Z,-11.61
2023-01-11T14:59:48.284Z,-11.63
2023-01-11T15:02:24.269Z,-11.64
2023-01-11T15:04:58.089Z,-11.72
2023-01-11T15:07:39.014Z,-11.79
2023-01-11T15:10:40.257Z,-11.78
2023-01-11T15:13:23.703Z,-11.81
2023-01-11T15:16:11.798Z,-11.86
2023-01-11T15:18:45.047Z,-11.86
2023-01-11T15:21:41.223Z,-11.86
2023-01-11T15:24:32.304Z,-11.88
2023-01-11T15:27:07.521Z,-11.91
2023-01-11T15:30:06.575Z,-11.92
2023-01-11T15:32:36.325Z,-11.97
2023-01-11T15:35:28.722Z,-11.95
2023-01-11T15:38:08.872Z,-11.96
2023-01-11T15:40:41.873Z,-11.94
2023-01-11T15:43:51.297Z,-11.91
2023-01-11T15:47:11.409Z,-11.92
2023-01-11T15:50:00.185Z,-11.91
2023-01-11T15:53:09.008Z,-11.88
2023-01-11T15:56:00.717Z,-11.82
2023-01-11T15:58:49.229Z,-11.75
2023-01-11T16:01:29.183Z,-11.74
2023-01-11T16:04:23.272Z,-11.60
2023-01-11T16:07:00.737Z,-11.70
2023-01-11T16:09:33.187Z,-11.51
2023-01-11T16:12:22.508Z,-11.46
2023-01-11T16:15:29.358Z,-11.38
2023-01-11T16:18:16.897Z,-11.39
2023-01-11T16:21:08.717Z,-11.28
2023-01-11T16:23:42.918Z,-11.25
2023-01-11T16:26:15.517Z,-11.22
2023-01-11T16:28:58.403Z,-11.13
2023-01-11T16:31:26.755Z,-11.19
2023-01-11T16:33:54.160Z,-11.12
2023-01-11T16:36:27.791Z,-11.13
2023-01-11T16:39:04.199Z,-11.07
2023-01-11T16:41:39.382Z,-11.05
2023-01-11T16:44:25.129Z,-10.98
2023-01-11T16:47:04.251Z,-10.96
2023-01-11T16:49:33.829Z,-10.98
2023-01-11T16:52:01.064Z,-10.95
2023-01-11T16:54:31.175Z,-10.96
2023-01-11T16:56:59.679Z,-10.93
2023-01-11T16:59:31.007Z,-10.91
2023-01-11T17:02:06.711Z,-10.88
2023-01-11T17:04:36.957Z,-10.80
2023-01-11T17:07:14.682Z,-10.75
2023-01-11T17:09:44.899Z,-10.72
2023-01-11T17:12:23.697Z,-10.75
2023-01-11T17:15:20.543Z,-10.75
2023-01-11T17:17:51.184Z,-10.86
2023-01-11T17:20:25.315Z,-10.78
2023-01-11T17:23:24.204Z,-10.66
2023-01-11T17:25:58.717Z,-10.65
2023-01-11T17:28:29.605Z,-10.66
2023-01-11T17:31:03.893Z,-10.66
2023-01-11T17:38:22.184Z,-10.82
2023-01-11T17:41:01.790Z,-10.62
2023-01-11T17:43:55.900Z,-10.65
2023-01-11T17:46:30.551Z,-10.63
2023-01-11T17:49:09.210Z,-10.65
2023-01-11T17:51:38.727Z,-10.69
2023-01-11T17:54:05.921Z,-10.72
2023-01-11T17:56:35.887Z,-10.62
2023-01-11T17:59:11.663Z,-10.63
2023-01-11T18:05:41.954Z,-10.77
2023-01-11T18:08:21.792Z,-10.77
2023-01-11T18:10:55.728Z,-10.69
2023-01-11T18:13:35.195Z,-10.88
2023-01-11T18:16:07.163Z,-10.71
2023-01-11T18:18:45.582Z,-10.74
2023-01-11T18:21:40.584Z,-10.73
2023-01-11T18:24:34.291Z,-10.69
2023-01-11T18:27:31.776Z,-10.76
2023-01-11T18:30:13.601Z,-10.74
2023-01-11T18:32:46.807Z,-10.88
2023-01-11T18:35:18.935Z,-10.76
2023-01-11T18:37:46.868Z,-10.82
2023-01-11T18:40:21.544Z,-10.67
2023-01-11T18:42:52.961Z,-10.68
2023-01-11T18:45:25.088Z,-10.66
2023-01-11T18:47:58.015Z,-10.64
2023-01-11T18:50:25.419Z,-10.70
2023-01-11T18:52:55.452Z,-10.65
2023-01-11T18:55:25.735Z,-10.76
2023-01-11T19:00:48.121Z,-10.79
2023-01-11T19:05:47.657Z,-10.70
2023-01-11T19:08:14.840Z,-10.64
2023-01-11T19:10:41.971Z,-10.65
2023-01-11T19:13:09.067Z,-10.67
2023-01-11T19:15:39.077Z,-10.65
2023-01-11T19:18:09.700Z,-10.66
2023-01-11T19:20:37.261Z,-10.63
2023-01-11T19:23:04.245Z,-10.66
2023-01-11T19:25:31.452Z,-10.71
2023-01-11T19:27:58.446Z,-10.65
2023-01-11T19:30:26.090Z,-10.59
2023-01-11T19:32:55.699Z,-10.62
2023-01-11T19:35:23.879Z,-10.65
2023-01-11T19:37:54.338Z,-10.59
2023-01-11T19:40:23.863Z,-10.64
2023-01-11T19:42:52.471Z,-10.60
2023-01-11T19:45:22.240Z,-10.58
2023-01-11T19:47:49.392Z,-10.58
2023-01-11T19:50:19.429Z,-10.59
2023-01-11T19:52:47.148Z,-10.58
2023-01-11T19:55:14.354Z,-10.57
2023-01-11T19:57:51.684Z,-10.51
2023-01-11T20:00:20.603Z,-10.50
2023-01-11T20:02:52.837Z,-10.54
2023-01-11T20:05:22.574Z,-10.53
2023-01-11T20:07:50.593Z,-10.52
2023-01-11T20:10:17.759Z,-10.54
2023-01-11T20:12:44.895Z,-10.56
2023-01-11T20:15:13.268Z,-10.49
2023-01-11T20:17:41.314Z,-10.51
2023-01-11T20:20:23.742Z,-10.50
2023-01-11T20:22:50.896Z,-10.49
2023-01-11T20:25:18.344Z,-10.52
2023-01-11T20:27:45.456Z,-10.65
2023-01-11T20:30:18.552Z,-10.55
2023-01-11T20:32:49.197Z,-10.54
2023-01-11T20:35:16.499Z,-10.50
2023-01-11T20:37:43.655Z,-10.52
2023-01-11T20:40:14.152Z,-10.51
2023-01-11T20:42:41.572Z,-10.55
2023-01-11T20:45:09.259Z,-10.54
2023-01-11T20:47:36.288Z,-10.48
2023-01-11T20:50:03.333Z,-10.54
2023-01-11T20:52:31.119Z,-10.51
2023-01-11T20:54:58.216Z,-10.52
2023-01-11T20:57:29.503Z,-10.47
2023-01-11T20:59:56.596Z,-10.45
2023-01-11T21:02:23.728Z,-10.44
2023-01-11T21:04:51.317Z,-10.45
2023-01-11T21:07:21.096Z,-10.49
2023-01-11T21:09:53.971Z,-10.48
2023-01-11T21:12:22.078Z,-10.53
2023-01-11T21:14:49.332Z,-10.45
2023-01-11T21:17:17.523Z,-10.48
2023-01-11T21:19:46.968Z,-10.49
2023-01-11T21:22:13.916Z,-10.48
2023-01-11T21:24:41.243Z,-10.47
2023-01-11T21:27:10.475Z,-10.51
2023-01-11T21:29:39.848Z,-10.47
2023-01-11T21:32:07.305Z,-10.48
2023-01-11T21:34:34.400Z,-10.47
2023-01-11T21:37:01.574Z,-10.44
2023-01-11T21:39:29.195Z,-10.43
2023-01-11T21:41:57.553Z,-10.45
2023-01-11T21:44:33.836Z,-10.43
2023-01-11T21:47:03.312Z,-10.45
2023-01-11T21:49:30.969Z,-10.41
2023-01-11T21:51:58.364Z,-10.30
2023-01-11T21:54:25.540Z,-10.26
2023-01-11T21:56:52.744Z,-10.31
2023-01-11T21:59:20.618Z,-10.33
2023-01-11T22:01:49.445Z,-10.28
2023-01-11T22:04:22.077Z,-10.28
2023-01-11T22:06:55.153Z,-10.21
2023-01-11T22:09:25.411Z,-10.19
2023-01-11T22:11:52.451Z,-10.23
2023-01-11T22:14:19.600Z,-10.26
2023-01-11T22:16:46.797Z,-10.21
2023-01-11T22:19:14.156Z,-10.34
2023-01-11T22:21:41.438Z,-10.15
2023-01-11T22:24:13.454Z,-10.13
2023-01-11T22:26:41.032Z,-10.17
2023-01-11T22:29:12.245Z,-10.10
2023-01-11T22:31:47.812Z,-10.09
2023-01-11T22:34:15.819Z,-10.02
2023-01-11T22:36:43.360Z,-10.01
2023-01-11T22:39:11.163Z,-10.04
2023-01-11T22:41:40.165Z,-10.00
2023-01-11T22:44:08.562Z,-9.98
2023-01-11T22:46:35.990Z,-9.95
2023-01-11T22:49:03.371Z,-9.95
2023-01-11T22:51:41.784Z,-9.90
2023-01-11T22:54:09.483Z,-9.92
2023-01-11T22:56:36.765Z,-9.93
2023-01-11T22:59:04.493Z,-9.96
2023-01-11T23:01:33.744Z,-9.94
2023-01-11T23:04:01.715Z,-9.94
2023-01-11T23:06:31.322Z,-9.90
2023-01-11T23:08:58.872Z,-9.88
2023-01-11T23:11:49.612Z,-9.87
2023-01-11T23:14:18.867Z,-9.89
2023-01-11T23:16:47.073Z,-9.88
2023-01-11T23:19:16.604Z,-9.90
2023-01-11T23:21:45.118Z,-9.91
2023-01-11T23:24:16.637Z,-9.89
2023-01-11T23:26:44.356Z,-9.92
2023-01-11T23:29:12.091Z,-9.95
2023-01-11T23:31:48.044Z,-9.92
2023-01-11T23:34:15.253Z,-9.87
2023-01-11T23:36:43.279Z,-9.87
2023-01-11T23:39:13.718Z,-9.91
2023-01-11T23:42:00.472Z,-9.90
2023-01-11T23:44:27.460Z,-9.89
2023-01-11T23:47:13.236Z,-9.90
2023-01-11T23:49:40.461Z,-9.88
2023-01-11T23:52:09.456Z,-9.87
2023-01-11T23:54:36.518Z,-9.82
2023-01-11T23:57:03.940Z,-9.83
2023-01-11T23:59:31.040Z,-9.91
